Dripping Springs' Hourly Summary for Thursday, July 5, 2018
Hour Temp
(f)
RH
(%)
Solar Rad.
(MJ/m2)
Rainfall
(in)
Wind
(mph)
7/5/2018 12:00 AM 72 97 0 0 5.67
7/5/2018 1:00 AM 70 96 0 0 5.67
7/5/2018 2:00 AM 70 95 0 0 4.62
7/5/2018 3:00 AM 70 93 0 0 4.62
7/5/2018 4:00 AM 70 93 0 0 5.09
7/5/2018 5:00 AM 70 95 0 0 6.73
7/5/2018 6:00 AM 71 95 0.01 0 6.73
7/5/2018 7:00 AM 71 95 0.11 0 5.16
7/5/2018 8:00 AM 73 95 0.69 0 4.06
7/5/2018 9:00 AM 76 82 1.44 0 5.19
7/5/2018 10:00 AM 79 75 2.14 0 5.19
7/5/2018 11:00 AM 81 65 2.15 0 5.16
7/5/2018 12:00 PM 82 62 2.15 0 5.16
7/5/2018 1:00 PM 83 60 1.8 0 4.14
7/5/2018 2:00 PM 86 56 2.91 0 5.94
7/5/2018 3:00 PM 87 51 2.91 0 6.33
7/5/2018 4:00 PM 88 44 1.98 0 7.04
7/5/2018 5:00 PM 89 40 1.98 0 7.04
7/5/2018 6:00 PM 89 39 1.06 0 6.88
7/5/2018 7:00 PM 89 41 0.92 0 4.98
7/5/2018 8:00 PM 88 43 0.57 0 4.42
7/5/2018 9:00 PM 86 59 0.09 0 1.1
7/5/2018 10:00 PM 80 75 0 0 0
7/5/2018 11:00 PM 76 78 0 0 0
Data Summary 79 71 22.91 0.00 4.87